PWSweather.com
Personal Weather Stations
Station Observations
MAKAWAOWX1
Up Country Maui, Makawao, HI 96768

Up Country MauiMakawao, HI 96768

Lat: 20.856944, Lon: -156.3149667

Elevation: 1500

Station Type: Davis Vantage Pro

Latest ConditionsUpdated 7:00:06 AM HST Sunday, Sep 23, 2018
Currently Today's Max Today's Min Today's Average
Temperature 63.8°F17.7°C 68.6°F20.3°C 63.0°F17.2°C 65.1°F18.4°C
Dew Point 60.5°F15.8°C 64.2°F17.9°C 59.7°F15.4°C 61.1°F16.2°C
Winds 3.5 mph E5.6 kmh E 4.6 mph -7.4 kmh - - 2.6 mph 4.2 kmh
Wind Gusts 3.5 mph5.6 kmh 9.2 mph14.8 kmh - -
Humidity 89% 89% 84% 87%
Pressure 29.81 in1009.5 mb 29.84 in1010.5 mb 29.79 in1008.8 mb -
Hour Temp Dew Point Humidity Winds Wind Gusts Pressure Precip Precip Rate Daily Precip Total
07:00 AM 63.8°F17.7°C 60.5°F15.8°C 89% 3.5 mph E5.6 kmh E 3.5 mph5.6 kmh 29.81 in1009.5 mb - 0.00 in0.0 mm 0.00 in0.0 mm
06:50 AM 63.4°F17.4°C 60.1°F15.6°C 89% 3.5 mph ENE5.6 kmh ENE 3.5 mph5.6 kmh 29.81 in1009.5 mb - 0.00 in0.0 mm 0.00 in0.0 mm
06:40 AM 63.2°F17.3°C 59.9°F15.5°C 89% 3.5 mph E5.6 kmh E 3.5 mph5.6 kmh 29.81 in1009.5 mb - 0.00 in0.0 mm 0.00 in0.0 mm
06:30 AM 63.0°F17.2°C 59.7°F15.4°C 89% 3.5 mph E5.6 kmh E 4.6 mph7.4 kmh 29.81 in1009.5 mb - 0.00 in0.0 mm 0.00 in0.0 mm
06:20 AM 63.0°F17.2°C 59.7°F15.4°C 89% 2.3 mph E3.7 kmh E 2.3 mph3.7 kmh 29.81 in1009.5 mb - 0.00 in0.0 mm 0.00 in0.0 mm
06:10 AM 63.0°F17.2°C 59.7°F15.4°C 89% 2.3 mph E3.7 kmh E 3.5 mph5.6 kmh 29.81 in1009.5 mb - 0.00 in0.0 mm 0.00 in0.0 mm
06:00 AM 63.1°F17.3°C 59.8°F15.4°C 89% 3.5 mph E5.6 kmh E 3.5 mph5.6 kmh 29.80 in1009.1 mb - 0.00 in0.0 mm 0.00 in0.0 mm
05:50 AM 63.1°F17.3°C 59.8°F15.4°C 89% 2.3 mph E3.7 kmh E 3.5 mph5.6 kmh 29.80 in1009.1 mb - 0.00 in0.0 mm 0.00 in0.0 mm
05:40 AM 63.2°F17.3°C 59.9°F15.5°C 89% 2.3 mph E3.7 kmh E 3.5 mph5.6 kmh 29.80 in1009.1 mb - 0.00 in0.0 mm 0.00 in0.0 mm
05:30 AM 63.3°F17.4°C 60.0°F15.6°C 89% 3.5 mph ENE5.6 kmh ENE 3.5 mph5.6 kmh 29.80 in1009.1 mb - 0.00 in0.0 mm 0.00 in0.0 mm
05:20 AM 63.4°F17.4°C 59.8°F15.4°C 88% 1.2 mph E1.9 kmh E 3.5 mph5.6 kmh 29.80 in1009.1 mb - 0.00 in0.0 mm 0.00 in0.0 mm
05:10 AM 63.5°F17.5°C 59.9°F15.5°C 88% 3.5 mph E5.6 kmh E 3.5 mph5.6 kmh 29.80 in1009.1 mb - 0.00 in0.0 mm 0.00 in0.0 mm
05:00 AM 63.8°F17.7°C 60.2°F15.7°C 88% 1.2 mph E1.9 kmh E 1.2 mph1.9 kmh 29.80 in1009.1 mb - 0.00 in0.0 mm 0.00 in0.0 mm
04:50 AM 63.9°F17.7°C 60.6°F15.9°C 89% 1.2 mph ENE1.9 kmh ENE 2.3 mph3.7 kmh 29.80 in1009.1 mb - 0.00 in0.0 mm 0.00 in0.0 mm
04:40 AM 63.7°F17.6°C 60.1°F15.6°C 88% 1.2 mph ENE1.9 kmh ENE 2.3 mph3.7 kmh 29.80 in1009.1 mb - 0.00 in0.0 mm 0.00 in0.0 mm
04:30 AM 63.5°F17.5°C 59.9°F15.5°C 88% 3.5 mph E5.6 kmh E 3.5 mph5.6 kmh 29.80 in1009.1 mb - 0.00 in0.0 mm 0.00 in0.0 mm
04:20 AM 63.7°F17.6°C 60.0°F15.6°C 88% 3.5 mph ESE5.6 kmh ESE 5.8 mph9.3 kmh 29.79 in1008.8 mb - 0.00 in0.0 mm 0.00 in0.0 mm
04:10 AM 63.9°F17.7°C 60.0°F15.6°C 87% 2.3 mph E3.7 kmh E 3.5 mph5.6 kmh 29.79 in1008.8 mb - 0.00 in0.0 mm 0.00 in0.0 mm
04:00 AM 64.2°F17.9°C 60.2°F15.7°C 87% 1.2 mph E1.9 kmh E 3.5 mph5.6 kmh 29.79 in1008.8 mb - 0.00 in0.0 mm 0.00 in0.0 mm
03:50 AM 64.5°F18.1°C 60.2°F15.7°C 86% 1.2 mph E1.9 kmh E 3.5 mph5.6 kmh 29.79 in1008.8 mb - 0.00 in0.0 mm 0.00 in0.0 mm
03:40 AM 64.8°F18.2°C 60.5°F15.8°C 86% 2.3 mph E3.7 kmh E 3.5 mph5.6 kmh 29.79 in1008.8 mb - 0.00 in0.0 mm 0.00 in0.0 mm
03:30 AM 65.0°F18.3°C 60.7°F15.9°C 86% 3.5 mph E5.6 kmh E 3.5 mph5.6 kmh 29.79 in1008.8 mb - 0.00 in0.0 mm 0.00 in0.0 mm
03:20 AM 65.3°F18.5°C 60.7°F15.9°C 85% 2.3 mph E3.7 kmh E 3.5 mph5.6 kmh 29.79 in1008.8 mb - 0.00 in0.0 mm 0.00 in0.0 mm
03:10 AM 65.6°F18.7°C 61.0°F16.1°C 85% 1.2 mph E1.9 kmh E 3.5 mph5.6 kmh 29.79 in1008.8 mb - 0.00 in0.0 mm 0.00 in0.0 mm
03:00 AM 65.5°F18.6°C 61.2°F16.2°C 86% 3.5 mph ENE5.6 kmh ENE 3.5 mph5.6 kmh 29.80 in1009.1 mb - 0.00 in0.0 mm 0.00 in0.0 mm
02:50 AM 65.3°F18.5°C 61.0°F16.1°C 86% 3.5 mph ENE5.6 kmh ENE 3.5 mph5.6 kmh 29.80 in1009.1 mb - 0.00 in0.0 mm 0.00 in0.0 mm
02:40 AM 65.4°F18.6°C 61.1°F16.2°C 86% 1.2 mph E1.9 kmh E 3.5 mph5.6 kmh 29.80 in1009.1 mb - 0.00 in0.0 mm 0.00 in0.0 mm
02:30 AM 65.8°F18.8°C 61.1°F16.2°C 85% 1.2 mph ESE1.9 kmh ESE 3.5 mph5.6 kmh 29.80 in1009.1 mb - 0.00 in0.0 mm 0.00 in0.0 mm
02:20 AM 66.0°F18.9°C 61.4°F16.3°C 85% 1.2 mph E1.9 kmh E 1.2 mph1.9 kmh 29.80 in1009.1 mb - 0.00 in0.0 mm 0.00 in0.0 mm
02:10 AM 66.1°F18.9°C 61.8°F16.6°C 86% 2.3 mph E3.7 kmh E 3.5 mph5.6 kmh 29.81 in1009.5 mb - 0.00 in0.0 mm 0.00 in0.0 mm
02:00 AM 66.0°F18.9°C 61.7°F16.5°C 86% 3.5 mph E5.6 kmh E 4.6 mph7.4 kmh 29.81 in1009.5 mb - 0.00 in0.0 mm 0.00 in0.0 mm
01:50 AM 66.1°F18.9°C 61.8°F16.6°C 86% 1.2 mph E1.9 kmh E 2.3 mph3.7 kmh 29.81 in1009.5 mb - 0.00 in0.0 mm 0.00 in0.0 mm
01:40 AM 66.2°F19.0°C 61.9°F16.6°C 86% 1.2 mph E1.9 kmh E 2.3 mph3.7 kmh 29.81 in1009.5 mb - 0.00 in0.0 mm 0.00 in0.0 mm
01:30 AM 66.5°F19.2°C 62.2°F16.8°C 86% 2.3 mph E3.7 kmh E 3.5 mph5.6 kmh 29.81 in1009.5 mb - 0.00 in0.0 mm 0.00 in0.0 mm
01:20 AM 66.8°F19.3°C 62.1°F16.7°C 85% 3.5 mph E5.6 kmh E 3.5 mph5.6 kmh 29.82 in1009.8 mb - 0.00 in0.0 mm 0.00 in0.0 mm
01:10 AM 67.2°F19.6°C 62.9°F17.2°C 86% 3.5 mph E5.6 kmh E 4.6 mph7.4 kmh 29.82 in1009.8 mb - 0.00 in0.0 mm 0.00 in0.0 mm
01:00 AM 67.4°F19.7°C 63.4°F17.4°C 87% 3.5 mph E5.6 kmh E 3.5 mph5.6 kmh 29.82 in1009.8 mb - 0.00 in0.0 mm 0.00 in0.0 mm
12:50 AM 67.7°F19.8°C 63.3°F17.4°C 86% 4.6 mph E7.4 kmh E 4.6 mph7.4 kmh 29.82 in1009.8 mb - 0.00 in0.0 mm 0.00 in0.0 mm
12:40 AM 68.0°F20.0°C 63.0°F17.2°C 84% 3.5 mph E5.6 kmh E 3.5 mph5.6 kmh 29.82 in1009.8 mb - 0.00 in0.0 mm 0.00 in0.0 mm
12:30 AM 68.6°F20.3°C 64.2°F17.9°C 86% 3.5 mph E5.6 kmh E 3.5 mph5.6 kmh 29.82 in1009.8 mb - 0.00 in0.0 mm 0.00 in0.0 mm
12:20 AM 68.6°F20.3°C 64.2°F17.9°C 86% 3.5 mph ENE5.6 kmh ENE 4.6 mph7.4 kmh 29.83 in1010.2 mb - 0.00 in0.0 mm 0.00 in0.0 mm
12:10 AM 68.2°F20.1°C 63.8°F17.7°C 86% 3.5 mph E5.6 kmh E 9.2 mph14.8 kmh 29.84 in1010.5 mb - 0.00 in0.0 mm 0.00 in0.0 mm
12:00 AM 68.1°F20.1°C 63.8°F17.7°C 86% 2.3 mph ENE3.7 kmh ENE 4.6 mph7.4 kmh 29.84 in1010.5 mb - 0.00 in0.0 mm 0.00 in0.0 mm